Terminal Aerodrome Forecast
Issued by NWS Denver/Boulder, CO

Home | Current Version | Previous Version | Text Only | Print | Product List | Glossary On
Versions: 1 2 3 4 5 6 7 8 9 10 11 12 13 14 15 16 17 18 19 20 21 22 23 24 25 26 27 28 29 30 31 32 33 34 35 36 37 38 39 40 41 42 43 44 45 46 47 48 49 50
000
FTUS45 KBOU 300214 AAA
TAFDEN
TAF AMD
KDEN 300214Z 3002/3106 12006KT P6SM SCT100 BKN150
     FM300500 17010KT P6SM FEW110 SCT200
     FM301700 22006KT P6SM FEW090 SCT150 BKN200
     FM302100 16012KT P6SM SCT070 BKN120 PROB30 3021/3024 VRB20G30KT
      -TSRA BKN070CB
     FM310100 20010KT P6SM SCT080 BKN140=

USA.gov is the U.S. government's official web portal to all federal, state and local government web resources and services.